sensor_id;sensor_type;location;lat;lon;timestamp;temperature;humidity
2391;DHT22;22957;50.824;4.360;2023-04-15T00:00:27;13.30;99.90
2391;DHT22;22957;50.824;4.360;2023-04-15T00:02:53;13.60;99.90
2391;DHT22;22957;50.824;4.360;2023-04-15T00:05:19;13.60;99.90
2391;DHT22;22957;50.824;4.360;2023-04-15T00:07:45;14.10;99.90
2391;DHT22;22957;50.824;4.360;2023-04-15T00:10:11;13.80;99.90
2391;DHT22;22957;50.824;4.360;2023-04-15T00:12:37;14.00;99.90
2391;DHT22;22957;50.824;4.360;2023-04-15T00:15:03;14.10;99.90
2391;DHT22;22957;50.824;4.360;2023-04-15T00:17:29;13.80;99.90
2391;DHT22;22957;50.824;4.360;2023-04-15T00:19:54;13.90;99.90
2391;DHT22;22957;50.824;4.360;2023-04-15T00:22:20;13.40;99.90
2391;DHT22;22957;50.824;4.360;2023-04-15T00:24:45;13.60;99.90
2391;DHT22;22957;50.824;4.360;2023-04-15T00:27:11;13.70;99.90
2391;DHT22;22957;50.824;4.360;2023-04-15T00:29:36;13.50;99.90
2391;DHT22;22957;50.824;4.360;2023-04-15T00:32:02;13.90;99.90
2391;DHT22;22957;50.824;4.360;2023-04-15T00:34:28;13.60;99.90
2391;DHT22;22957;50.824;4.360;2023-04-15T00:36:53;13.80;99.90
2391;DHT22;22957;50.824;4.360;2023-04-15T00:39:19;14.00;99.90
2391;DHT22;22957;50.824;4.360;2023-04-15T00:41:45;14.00;99.90
2391;DHT22;22957;50.824;4.360;2023-04-15T00:44:11;13.70;99.90
2391;DHT22;22957;50.824;4.360;2023-04-15T00:46:37;13.50;99.90
2391;DHT22;22957;50.824;4.360;2023-04-15T00:49:04;13.60;99.90
2391;DHT22;22957;50.824;4.360;2023-04-15T00:51:31;13.90;99.90
2391;DHT22;22957;50.824;4.360;2023-04-15T00:53:58;13.60;99.90
2391;DHT22;22957;50.824;4.360;2023-04-15T00:56:24;13.90;99.90
2391;DHT22;22957;50.824;4.360;2023-04-15T00:58:51;13.80;99.90
2391;DHT22;22957;50.824;4.360;2023-04-15T01:01:21;13.60;99.90
2391;DHT22;22957;50.824;4.360;2023-04-15T01:03:48;13.90;99.90
2391;DHT22;22957;50.824;4.360;2023-04-15T01:06:14;14.00;99.90
2391;DHT22;22957;50.824;4.360;2023-04-15T01:08:41;13.70;99.90
2391;DHT22;22957;50.824;4.360;2023-04-15T01:11:06;13.70;99.90
2391;DHT22;22957;50.824;4.360;2023-04-15T01:13:33;13.50;99.90
2391;DHT22;22957;50.824;4.360;2023-04-15T01:15:59;13.40;99.90
2391;DHT22;22957;50.824;4.360;2023-04-15T01:18:26;13.40;99.90
2391;DHT22;22957;50.824;4.360;2023-04-15T01:20:52;13.70;99.90
2391;DHT22;22957;50.824;4.360;2023-04-15T01:23:20;13.60;99.90
2391;DHT22;22957;50.824;4.360;2023-04-15T01:25:46;13.40;99.90
2391;DHT22;22957;50.824;4.360;2023-04-15T01:28:13;13.60;99.90
2391;DHT22;22957;50.824;4.360;2023-04-15T01:30:39;13.60;99.90
2391;DHT22;22957;50.824;4.360;2023-04-15T01:33:04;13.30;99.90
2391;DHT22;22957;50.824;4.360;2023-04-15T01:35:30;13.30;99.90
2391;DHT22;22957;50.824;4.360;2023-04-15T01:38:03;13.50;99.90
2391;DHT22;22957;50.824;4.360;2023-04-15T01:40:29;13.80;99.90
2391;DHT22;22957;50.824;4.360;2023-04-15T01:42:55;13.10;99.90
2391;DHT22;22957;50.824;4.360;2023-04-15T01:45:20;13.00;99.90
2391;DHT22;22957;50.824;4.360;2023-04-15T01:47:46;13.30;99.90
2391;DHT22;22957;50.824;4.360;2023-04-15T01:50:12;13.40;99.90
2391;DHT22;22957;50.824;4.360;2023-04-15T01:52:38;13.20;99.90
2391;DHT22;22957;50.824;4.360;2023-04-15T01:55:04;13.30;99.90
2391;DHT22;22957;50.824;4.360;2023-04-15T01:57:30;13.50;99.90
2391;DHT22;22957;50.824;4.360;2023-04-15T01:59:56;13.60;99.90
2391;DHT22;22957;50.824;4.360;2023-04-15T02:02:22;13.20;99.90
2391;DHT22;22957;50.824;4.360;2023-04-15T02:04:47;13.50;99.90
2391;DHT22;22957;50.824;4.360;2023-04-15T02:07:13;13.50;99.90
2391;DHT22;22957;50.824;4.360;2023-04-15T02:09:38;13.40;99.90
2391;DHT22;22957;50.824;4.360;2023-04-15T02:12:04;13.20;99.90
2391;DHT22;22957;50.824;4.360;2023-04-15T02:14:30;12.70;99.90
2391;DHT22;22957;50.824;4.360;2023-04-15T02:16:56;12.80;99.90
2391;DHT22;22957;50.824;4.360;2023-04-15T02:19:21;12.90;99.90
2391;DHT22;22957;50.824;4.360;2023-04-15T02:21:47;12.80;99.90
2391;DHT22;22957;50.824;4.360;2023-04-15T02:24:12;13.20;99.90
2391;DHT22;22957;50.824;4.360;2023-04-15T02:26:38;13.30;99.90
2391;DHT22;22957;50.824;4.360;2023-04-15T02:29:03;13.10;99.90
2391;DHT22;22957;50.824;4.360;2023-04-15T02:31:29;13.30;99.90
2391;DHT22;22957;50.824;4.360;2023-04-15T02:33:55;13.30;99.90
2391;DHT22;22957;50.824;4.360;2023-04-15T02:36:20;13.40;99.90
2391;DHT22;22957;50.824;4.360;2023-04-15T02:38:46;12.90;99.90
2391;DHT22;22957;50.824;4.360;2023-04-15T02:41:11;13.40;99.90
2391;DHT22;22957;50.824;4.360;2023-04-15T02:43:37;13.70;99.90
2391;DHT22;22957;50.824;4.360;2023-04-15T02:46:04;13.30;99.90
2391;DHT22;22957;50.824;4.360;2023-04-15T02:48:30;13.20;99.90
2391;DHT22;22957;50.824;4.360;2023-04-15T02:51:16;13.50;99.90
2391;DHT22;22957;50.824;4.360;2023-04-15T02:53:44;13.60;99.90
2391;DHT22;22957;50.824;4.360;2023-04-15T02:56:10;13.60;99.90
2391;DHT22;22957;50.824;4.360;2023-04-15T02:58:37;13.60;99.90
2391;DHT22;22957;50.824;4.360;2023-04-15T03:01:02;13.60;99.90
2391;DHT22;22957;50.824;4.360;2023-04-15T03:03:28;13.60;99.90
2391;DHT22;22957;50.824;4.360;2023-04-15T03:05:53;13.30;99.90
2391;DHT22;22957;50.824;4.360;2023-04-15T03:08:19;13.30;99.90
2391;DHT22;22957;50.824;4.360;2023-04-15T03:10:48;13.50;99.90
2391;DHT22;22957;50.824;4.360;2023-04-15T03:13:13;13.40;99.90
2391;DHT22;22957;50.824;4.360;2023-04-15T03:15:39;13.30;99.90
2391;DHT22;22957;50.824;4.360;2023-04-15T03:18:04;13.20;99.90
2391;DHT22;22957;50.824;4.360;2023-04-15T03:20:30;13.30;99.90
2391;DHT22;22957;50.824;4.360;2023-04-15T03:22:55;12.40;99.90
2391;DHT22;22957;50.824;4.360;2023-04-15T03:25:21;13.20;99.90
2391;DHT22;22957;50.824;4.360;2023-04-15T03:27:47;13.10;99.90
2391;DHT22;22957;50.824;4.360;2023-04-15T03:30:12;13.00;99.90
2391;DHT22;22957;50.824;4.360;2023-04-15T03:32:38;12.50;99.90
2391;DHT22;22957;50.824;4.360;2023-04-15T03:35:04;11.90;99.90
2391;DHT22;22957;50.824;4.360;2023-04-15T03:37:30;12.40;99.90
2391;DHT22;22957;50.824;4.360;2023-04-15T03:39:56;12.30;99.90
2391;DHT22;22957;50.824;4.360;2023-04-15T03:42:21;11.90;99.90
2391;DHT22;22957;50.824;4.360;2023-04-15T03:44:47;11.50;99.90
2391;DHT22;22957;50.824;4.360;2023-04-15T03:47:12;11.50;99.90
2391;DHT22;22957;50.824;4.360;2023-04-15T03:49:38;11.70;99.90
2391;DHT22;22957;50.824;4.360;2023-04-15T03:52:04;12.20;99.90
2391;DHT22;22957;50.824;4.360;2023-04-15T03:54:29;11.90;99.90
2391;DHT22;22957;50.824;4.360;2023-04-15T03:56:55;12.10;99.90
2391;DHT22;22957;50.824;4.360;2023-04-15T03:59:22;12.10;99.90
2391;DHT22;22957;50.824;4.360;2023-04-15T04:01:47;11.60;99.90
2391;DHT22;22957;50.824;4.360;2023-04-15T04:04:13;11.60;99.90
2391;DHT22;22957;50.824;4.360;2023-04-15T04:06:38;12.00;99.90
2391;DHT22;22957;50.824;4.360;2023-04-15T04:09:04;12.00;99.90
2391;DHT22;22957;50.824;4.360;2023-04-15T04:11:30;11.50;99.90
2391;DHT22;22957;50.824;4.360;2023-04-15T04:13:56;12.10;99.90
2391;DHT22;22957;50.824;4.360;2023-04-15T04:16:21;11.70;99.90
2391;DHT22;22957;50.824;4.360;2023-04-15T04:18:47;11.50;99.90
2391;DHT22;22957;50.824;4.360;2023-04-15T04:21:12;10.90;99.90
2391;DHT22;22957;50.824;4.360;2023-04-15T04:23:38;10.90;99.90
2391;DHT22;22957;50.824;4.360;2023-04-15T04:26:04;11.30;99.90
2391;DHT22;22957;50.824;4.360;2023-04-15T04:28:29;11.10;99.90
2391;DHT22;22957;50.824;4.360;2023-04-15T04:30:55;10.70;99.90
2391;DHT22;22957;50.824;4.360;2023-04-15T04:33:21;10.90;99.90
2391;DHT22;22957;50.824;4.360;2023-04-15T04:35:46;10.80;99.90
2391;DHT22;22957;50.824;4.360;2023-04-15T04:38:12;11.50;99.90
2391;DHT22;22957;50.824;4.360;2023-04-15T04:40:37;11.60;99.90
2391;DHT22;22957;50.824;4.360;2023-04-15T04:43:03;11.60;99.90
2391;DHT22;22957;50.824;4.360;2023-04-15T04:45:29;11.40;99.90
2391;DHT22;22957;50.824;4.360;2023-04-15T04:47:55;11.70;99.90
2391;DHT22;22957;50.824;4.360;2023-04-15T04:50:20;11.50;99.90
2391;DHT22;22957;50.824;4.360;2023-04-15T04:52:46;10.80;99.90
2391;DHT22;22957;50.824;4.360;2023-04-15T04:55:11;11.10;99.90
2391;DHT22;22957;50.824;4.360;2023-04-15T04:57:37;11.20;99.90
2391;DHT22;22957;50.824;4.360;2023-04-15T05:00:05;11.90;99.90
2391;DHT22;22957;50.824;4.360;2023-04-15T05:02:32;11.80;99.90
2391;DHT22;22957;50.824;4.360;2023-04-15T05:04:58;11.40;99.90
2391;DHT22;22957;50.824;4.360;2023-04-15T05:07:23;11.20;99.90
2391;DHT22;22957;50.824;4.360;2023-04-15T05:09:49;11.60;99.90
2391;DHT22;22957;50.824;4.360;2023-04-15T05:12:15;11.30;99.90
2391;DHT22;22957;50.824;4.360;2023-04-15T05:14:40;11.00;99.90
2391;DHT22;22957;50.824;4.360;2023-04-15T05:17:07;11.60;99.90
2391;DHT22;22957;50.824;4.360;2023-04-15T05:19:33;11.40;99.90
2391;DHT22;22957;50.824;4.360;2023-04-15T05:21:59;11.70;99.90
2391;DHT22;22957;50.824;4.360;2023-04-15T05:24:24;11.70;99.90
2391;DHT22;22957;50.824;4.360;2023-04-15T05:26:50;11.70;99.90
2391;DHT22;22957;50.824;4.360;2023-04-15T05:29:15;11.50;99.90
2391;DHT22;22957;50.824;4.360;2023-04-15T05:31:42;11.50;99.90
2391;DHT22;22957;50.824;4.360;2023-04-15T05:34:07;10.90;99.90
2391;DHT22;22957;50.824;4.360;2023-04-15T05:36:33;11.40;99.90
2391;DHT22;22957;50.824;4.360;2023-04-15T05:38:58;11.20;99.90
2391;DHT22;22957;50.824;4.360;2023-04-15T05:41:24;11.70;99.90
2391;DHT22;22957;50.824;4.360;2023-04-15T05:43:50;11.50;99.90
2391;DHT22;22957;50.824;4.360;2023-04-15T05:46:16;11.70;99.90
2391;DHT22;22957;50.824;4.360;2023-04-15T05:48:41;11.90;99.90
2391;DHT22;22957;50.824;4.360;2023-04-15T05:51:07;11.30;99.90
2391;DHT22;22957;50.824;4.360;2023-04-15T05:53:33;11.20;99.90
2391;DHT22;22957;50.824;4.360;2023-04-15T05:55:58;12.10;99.90
2391;DHT22;22957;50.824;4.360;2023-04-15T05:58:24;11.20;99.90
2391;DHT22;22957;50.824;4.360;2023-04-15T06:00:49;11.40;99.90
2391;DHT22;22957;50.824;4.360;2023-04-15T06:03:15;11.50;99.90
2391;DHT22;22957;50.824;4.360;2023-04-15T06:05:41;11.30;99.90
2391;DHT22;22957;50.824;4.360;2023-04-15T06:08:07;11.50;99.90
2391;DHT22;22957;50.824;4.360;2023-04-15T06:10:34;11.30;99.90
2391;DHT22;22957;50.824;4.360;2023-04-15T06:13:01;11.60;99.90
2391;DHT22;22957;50.824;4.360;2023-04-15T06:15:28;11.60;99.90
2391;DHT22;22957;50.824;4.360;2023-04-15T06:17:54;12.10;99.90
2391;DHT22;22957;50.824;4.360;2023-04-15T06:20:20;11.60;99.90
2391;DHT22;22957;50.824;4.360;2023-04-15T06:22:46;11.60;99.90
2391;DHT22;22957;50.824;4.360;2023-04-15T06:25:11;11.20;99.90
2391;DHT22;22957;50.824;4.360;2023-04-15T06:27:37;11.40;99.90
2391;DHT22;22957;50.824;4.360;2023-04-15T06:30:03;11.90;99.90
2391;DHT22;22957;50.824;4.360;2023-04-15T06:32:29;11.80;99.90
2391;DHT22;22957;50.824;4.360;2023-04-15T06:34:56;12.20;99.90
2391;DHT22;22957;50.824;4.360;2023-04-15T06:37:21;12.10;99.90
2391;DHT22;22957;50.824;4.360;2023-04-15T06:39:47;12.20;99.90
2391;DHT22;22957;50.824;4.360;2023-04-15T06:42:12;12.20;99.90
2391;DHT22;22957;50.824;4.360;2023-04-15T06:44:38;13.00;99.90
2391;DHT22;22957;50.824;4.360;2023-04-15T06:47:04;12.40;99.90
2391;DHT22;22957;50.824;4.360;2023-04-15T06:49:30;13.30;99.90
2391;DHT22;22957;50.824;4.360;2023-04-15T06:51:56;13.30;99.90
2391;DHT22;22957;50.824;4.360;2023-04-15T06:54:22;13.80;99.90
2391;DHT22;22957;50.824;4.360;2023-04-15T06:56:47;13.60;99.90
2391;DHT22;22957;50.824;4.360;2023-04-15T06:59:13;12.00;99.90
2391;DHT22;22957;50.824;4.360;2023-04-15T07:01:42;13.80;99.90
2391;DHT22;22957;50.824;4.360;2023-04-15T07:04:08;13.90;99.90
2391;DHT22;22957;50.824;4.360;2023-04-15T07:06:33;13.50;99.90
2391;DHT22;22957;50.824;4.360;2023-04-15T07:09:00;14.00;99.90
2391;DHT22;22957;50.824;4.360;2023-04-15T07:11:26;14.50;99.90
2391;DHT22;22957;50.824;4.360;2023-04-15T07:13:51;14.20;99.90
2391;DHT22;22957;50.824;4.360;2023-04-15T07:16:17;15.30;99.90
2391;DHT22;22957;50.824;4.360;2023-04-15T07:18:43;15.20;99.90
2391;DHT22;22957;50.824;4.360;2023-04-15T07:21:09;16.30;99.90
2391;DHT22;22957;50.824;4.360;2023-04-15T07:23:34;15.90;99.90
2391;DHT22;22957;50.824;4.360;2023-04-15T07:26:00;15.20;99.90
2391;DHT22;22957;50.824;4.360;2023-04-15T07:28:26;16.20;99.90
2391;DHT22;22957;50.824;4.360;2023-04-15T07:30:52;16.80;99.90
2391;DHT22;22957;50.824;4.360;2023-04-15T07:33:17;17.90;99.90
2391;DHT22;22957;50.824;4.360;2023-04-15T07:35:43;14.80;99.90
2391;DHT22;22957;50.824;4.360;2023-04-15T07:38:09;16.40;99.90
2391;DHT22;22957;50.824;4.360;2023-04-15T07:40:37;15.50;99.90
2391;DHT22;22957;50.824;4.360;2023-04-15T07:43:03;15.40;99.90
2391;DHT22;22957;50.824;4.360;2023-04-15T07:45:30;14.90;99.90
2391;DHT22;22957;50.824;4.360;2023-04-15T07:47:55;16.80;99.90
2391;DHT22;22957;50.824;4.360;2023-04-15T07:50:21;17.20;99.90
2391;DHT22;22957;50.824;4.360;2023-04-15T07:52:48;16.80;99.90
2391;DHT22;22957;50.824;4.360;2023-04-15T07:55:14;16.90;99.90
2391;DHT22;22957;50.824;4.360;2023-04-15T07:57:41;13.60;99.90
2391;DHT22;22957;50.824;4.360;2023-04-15T08:00:07;13.40;99.90
2391;DHT22;22957;50.824;4.360;2023-04-15T08:02:34;12.80;99.90
2391;DHT22;22957;50.824;4.360;2023-04-15T08:04:59;12.20;99.90
2391;DHT22;22957;50.824;4.360;2023-04-15T08:07:27;13.70;99.90
2391;DHT22;22957;50.824;4.360;2023-04-15T08:09:53;13.30;99.90
2391;DHT22;22957;50.824;4.360;2023-04-15T08:12:18;13.30;99.90
2391;DHT22;22957;50.824;4.360;2023-04-15T08:14:44;14.70;99.90
2391;DHT22;22957;50.824;4.360;2023-04-15T08:17:10;15.80;99.90
2391;DHT22;22957;50.824;4.360;2023-04-15T08:19:35;17.30;99.90
2391;DHT22;22957;50.824;4.360;2023-04-15T08:22:01;17.70;99.90
2391;DHT22;22957;50.824;4.360;2023-04-15T08:24:27;18.00;99.90
2391;DHT22;22957;50.824;4.360;2023-04-15T08:26:53;15.30;99.90
2391;DHT22;22957;50.824;4.360;2023-04-15T08:29:18;15.10;99.90
2391;DHT22;22957;50.824;4.360;2023-04-15T08:31:44;15.80;99.90
2391;DHT22;22957;50.824;4.360;2023-04-15T08:34:12;16.10;99.90
2391;DHT22;22957;50.824;4.360;2023-04-15T08:36:38;15.40;99.90
2391;DHT22;22957;50.824;4.360;2023-04-15T08:39:04;14.90;99.90
2391;DHT22;22957;50.824;4.360;2023-04-15T08:41:39;15.10;99.90
2391;DHT22;22957;50.824;4.360;2023-04-15T08:44:05;14.60;99.90
2391;DHT22;22957;50.824;4.360;2023-04-15T08:46:31;13.90;99.90
2391;DHT22;22957;50.824;4.360;2023-04-15T08:49:03;13.70;99.90
2391;DHT22;22957;50.824;4.360;2023-04-15T08:51:29;15.30;99.90
2391;DHT22;22957;50.824;4.360;2023-04-15T08:53:56;15.10;99.90
2391;DHT22;22957;50.824;4.360;2023-04-15T08:56:25;15.70;99.90
2391;DHT22;22957;50.824;4.360;2023-04-15T08:58:53;15.30;99.90
2391;DHT22;22957;50.824;4.360;2023-04-15T09:01:19;17.40;99.90
2391;DHT22;22957;50.824;4.360;2023-04-15T09:03:47;16.40;99.90
2391;DHT22;22957;50.824;4.360;2023-04-15T09:06:14;17.00;99.90
2391;DHT22;22957;50.824;4.360;2023-04-15T09:08:40;18.00;99.90
2391;DHT22;22957;50.824;4.360;2023-04-15T09:11:06;17.50;99.50
2391;DHT22;22957;50.824;4.360;2023-04-15T09:13:32;16.80;99.90
2391;DHT22;22957;50.824;4.360;2023-04-15T09:16:01;18.70;98.90
2391;DHT22;22957;50.824;4.360;2023-04-15T09:18:29;18.30;98.90
2391;DHT22;22957;50.824;4.360;2023-04-15T09:21:02;18.90;99.20
2391;DHT22;22957;50.824;4.360;2023-04-15T09:23:29;17.50;99.60
2391;DHT22;22957;50.824;4.360;2023-04-15T09:25:56;17.30;99.30
2391;DHT22;22957;50.824;4.360;2023-04-15T09:28:25;17.30;99.40
2391;DHT22;22957;50.824;4.360;2023-04-15T09:31:01;17.90;99.90
2391;DHT22;22957;50.824;4.360;2023-04-15T09:33:28;19.20;99.00
2391;DHT22;22957;50.824;4.360;2023-04-15T09:36:01;21.30;96.60
2391;DHT22;22957;50.824;4.360;2023-04-15T09:38:28;20.10;96.60
2391;DHT22;22957;50.824;4.360;2023-04-15T09:40:54;18.50;96.50
2391;DHT22;22957;50.824;4.360;2023-04-15T09:43:20;18.50;93.50
2391;DHT22;22957;50.824;4.360;2023-04-15T09:45:51;18.80;93.10
2391;DHT22;22957;50.824;4.360;2023-04-15T09:48:22;20.70;90.90
2391;DHT22;22957;50.824;4.360;2023-04-15T09:50:50;17.50;92.10
2391;DHT22;22957;50.824;4.360;2023-04-15T09:53:22;17.00;93.30
2391;DHT22;22957;50.824;4.360;2023-04-15T09:55:58;15.20;95.60
2391;DHT22;22957;50.824;4.360;2023-04-15T09:58:37;16.30;95.30
2391;DHT22;22957;50.824;4.360;2023-04-15T10:01:04;16.70;95.30
2391;DHT22;22957;50.824;4.360;2023-04-15T10:03:32;17.10;94.60
2391;DHT22;22957;50.824;4.360;2023-04-15T10:06:00;19.00;94.90
2391;DHT22;22957;50.824;4.360;2023-04-15T10:08:28;17.50;93.50
2391;DHT22;22957;50.824;4.360;2023-04-15T10:10:54;16.70;93.50
2391;DHT22;22957;50.824;4.360;2023-04-15T10:13:23;15.50;94.70
2391;DHT22;22957;50.824;4.360;2023-04-15T10:16:02;15.80;95.00
2391;DHT22;22957;50.824;4.360;2023-04-15T10:18:33;17.10;95.10
2391;DHT22;22957;50.824;4.360;2023-04-15T10:20:59;16.90;95.10
2391;DHT22;22957;50.824;4.360;2023-04-15T10:23:25;17.10;96.10
2391;DHT22;22957;50.824;4.360;2023-04-15T10:25:52;18.00;96.20
2391;DHT22;22957;50.824;4.360;2023-04-15T10:28:19;16.60;95.70
2391;DHT22;22957;50.824;4.360;2023-04-15T10:30:47;16.80;95.40
2391;DHT22;22957;50.824;4.360;2023-04-15T10:33:15;17.80;94.10
2391;DHT22;22957;50.824;4.360;2023-04-15T10:35:42;16.30;95.00
2391;DHT22;22957;50.824;4.360;2023-04-15T10:38:31;18.60;94.40
2391;DHT22;22957;50.824;4.360;2023-04-15T10:41:24;17.40;92.50
2391;DHT22;22957;50.824;4.360;2023-04-15T10:44:01;16.40;94.60
2391;DHT22;22957;50.824;4.360;2023-04-15T10:46:37;17.50;95.80
2391;DHT22;22957;50.824;4.360;2023-04-15T10:49:09;18.70;94.40
2391;DHT22;22957;50.824;4.360;2023-04-15T10:51:40;20.50;92.60
2391;DHT22;22957;50.824;4.360;2023-04-15T10:54:30;19.20;93.90
2391;DHT22;22957;50.824;4.360;2023-04-15T10:59:31;18.10;90.40
2391;DHT22;22957;50.824;4.360;2023-04-15T11:02:01;17.90;91.80
2391;DHT22;22957;50.824;4.360;2023-04-15T11:04:58;18.90;89.40
2391;DHT22;22957;50.824;4.360;2023-04-15T11:12:57;17.20;91.20
2391;DHT22;22957;50.824;4.360;2023-04-15T11:15:26;19.60;87.30
2391;DHT22;22957;50.824;4.360;2023-04-15T11:17:54;19.30;84.40
2391;DHT22;22957;50.824;4.360;2023-04-15T11:20:21;17.90;84.00
2391;DHT22;22957;50.824;4.360;2023-04-15T11:22:51;18.50;84.90
2391;DHT22;22957;50.824;4.360;2023-04-15T11:25:28;17.50;84.80
2391;DHT22;22957;50.824;4.360;2023-04-15T11:27:54;18.70;81.50
2391;DHT22;22957;50.824;4.360;2023-04-15T11:30:23;20.10;82.40
2391;DHT22;22957;50.824;4.360;2023-04-15T11:32:49;21.70;79.00
2391;DHT22;22957;50.824;4.360;2023-04-15T11:35:17;19.20;77.00
2391;DHT22;22957;50.824;4.360;2023-04-15T11:37:43;18.80;80.90
2391;DHT22;22957;50.824;4.360;2023-04-15T11:40:10;19.30;78.70
2391;DHT22;22957;50.824;4.360;2023-04-15T11:42:36;19.20;76.20
2391;DHT22;22957;50.824;4.360;2023-04-15T11:45:12;19.80;77.40
2391;DHT22;22957;50.824;4.360;2023-04-15T11:47:39;21.20;74.50
2391;DHT22;22957;50.824;4.360;2023-04-15T11:52:51;19.80;72.90
2391;DHT22;22957;50.824;4.360;2023-04-15T11:55:16;20.50;73.10
2391;DHT22;22957;50.824;4.360;2023-04-15T11:57:42;19.90;64.20
2391;DHT22;22957;50.824;4.360;2023-04-15T12:00:09;18.20;59.20
2391;DHT22;22957;50.824;4.360;2023-04-15T12:02:38;16.80;66.80
2391;DHT22;22957;50.824;4.360;2023-04-15T12:05:05;19.10;69.00
2391;DHT22;22957;50.824;4.360;2023-04-15T12:07:31;17.80;70.60
2391;DHT22;22957;50.824;4.360;2023-04-15T12:09:57;17.10;72.30
2391;DHT22;22957;50.824;4.360;2023-04-15T12:12:27;17.50;74.70
2391;DHT22;22957;50.824;4.360;2023-04-15T12:14:53;18.70;74.70
2391;DHT22;22957;50.824;4.360;2023-04-15T12:17:22;19.70;74.40
2391;DHT22;22957;50.824;4.360;2023-04-15T12:19:47;19.70;69.90
2391;DHT22;22957;50.824;4.360;2023-04-15T12:22:16;21.80;65.30
2391;DHT22;22957;50.824;4.360;2023-04-15T12:24:42;21.80;59.40
2391;DHT22;22957;50.824;4.360;2023-04-15T12:27:13;19.60;64.00
2391;DHT22;22957;50.824;4.360;2023-04-15T12:29:40;20.50;62.70
2391;DHT22;22957;50.824;4.360;2023-04-15T12:32:12;18.20;69.00
2391;DHT22;22957;50.824;4.360;2023-04-15T12:34:43;17.60;68.70
2391;DHT22;22957;50.824;4.360;2023-04-15T12:37:11;17.60;69.80
2391;DHT22;22957;50.824;4.360;2023-04-15T12:39:39;18.30;70.00
2391;DHT22;22957;50.824;4.360;2023-04-15T12:42:06;18.90;68.40
2391;DHT22;22957;50.824;4.360;2023-04-15T12:44:32;18.00;67.30
2391;DHT22;22957;50.824;4.360;2023-04-15T12:46:58;17.90;66.80
2391;DHT22;22957;50.824;4.360;2023-04-15T12:49:24;18.60;62.20
2391;DHT22;22957;50.824;4.360;2023-04-15T12:51:58;17.50;60.10
2391;DHT22;22957;50.824;4.360;2023-04-15T12:54:24;18.60;64.90
2391;DHT22;22957;50.824;4.360;2023-04-15T12:56:51;17.70;64.70
2391;DHT22;22957;50.824;4.360;2023-04-15T12:59:17;19.10;62.90
2391;DHT22;22957;50.824;4.360;2023-04-15T13:01:43;18.60;61.90
2391;DHT22;22957;50.824;4.360;2023-04-15T13:04:10;18.10;64.40
2391;DHT22;22957;50.824;4.360;2023-04-15T13:06:35;19.30;63.70
2391;DHT22;22957;50.824;4.360;2023-04-15T13:09:02;18.80;63.10
2391;DHT22;22957;50.824;4.360;2023-04-15T13:11:29;20.50;59.20
2391;DHT22;22957;50.824;4.360;2023-04-15T13:13:59;20.30;60.40
2391;DHT22;22957;50.824;4.360;2023-04-15T13:16:25;18.70;60.90
2391;DHT22;22957;50.824;4.360;2023-04-15T13:18:50;20.20;62.80
2391;DHT22;22957;50.824;4.360;2023-04-15T13:21:17;20.40;61.40
2391;DHT22;22957;50.824;4.360;2023-04-15T13:23:43;20.50;62.00
2391;DHT22;22957;50.824;4.360;2023-04-15T13:26:08;21.10;62.20
2391;DHT22;22957;50.824;4.360;2023-04-15T13:28:34;17.20;63.10
2391;DHT22;22957;50.824;4.360;2023-04-15T13:31:00;16.90;72.80
2391;DHT22;22957;50.824;4.360;2023-04-15T13:33:26;17.30;72.50
2391;DHT22;22957;50.824;4.360;2023-04-15T13:35:52;16.50;75.30
2391;DHT22;22957;50.824;4.360;2023-04-15T13:38:18;18.20;74.90
2391;DHT22;22957;50.824;4.360;2023-04-15T13:40:43;18.00;73.80
2391;DHT22;22957;50.824;4.360;2023-04-15T13:43:09;18.50;73.50
2391;DHT22;22957;50.824;4.360;2023-04-15T13:45:34;19.20;74.20
2391;DHT22;22957;50.824;4.360;2023-04-15T13:48:00;19.70;71.20
2391;DHT22;22957;50.824;4.360;2023-04-15T13:50:27;19.30;70.40
2391;DHT22;22957;50.824;4.360;2023-04-15T13:52:53;19.40;70.40
2391;DHT22;22957;50.824;4.360;2023-04-15T13:55:18;20.00;68.70
2391;DHT22;22957;50.824;4.360;2023-04-15T13:57:44;18.30;69.80
2391;DHT22;22957;50.824;4.360;2023-04-15T14:00:10;18.10;71.20
2391;DHT22;22957;50.824;4.360;2023-04-15T14:02:36;19.20;71.70
2391;DHT22;22957;50.824;4.360;2023-04-15T14:05:02;19.50;67.70
2391;DHT22;22957;50.824;4.360;2023-04-15T14:07:28;19.90;68.40
2391;DHT22;22957;50.824;4.360;2023-04-15T14:09:55;20.90;67.20
2391;DHT22;22957;50.824;4.360;2023-04-15T14:12:20;20.80;66.20
2391;DHT22;22957;50.824;4.360;2023-04-15T14:14:46;16.40;67.70
2391;DHT22;22957;50.824;4.360;2023-04-15T14:17:12;15.90;73.50
2391;DHT22;22957;50.824;4.360;2023-04-15T14:19:37;16.90;74.50
2391;DHT22;22957;50.824;4.360;2023-04-15T14:22:03;18.90;72.40
2391;DHT22;22957;50.824;4.360;2023-04-15T14:24:29;18.70;71.70
2391;DHT22;22957;50.824;4.360;2023-04-15T14:26:54;17.90;73.00
2391;DHT22;22957;50.824;4.360;2023-04-15T14:29:22;19.70;73.00
2391;DHT22;22957;50.824;4.360;2023-04-15T14:31:47;18.50;71.90
2391;DHT22;22957;50.824;4.360;2023-04-15T14:34:14;20.00;72.80
2391;DHT22;22957;50.824;4.360;2023-04-15T14:36:40;18.70;73.40
2391;DHT22;22957;50.824;4.360;2023-04-15T14:39:06;17.80;73.80
2391;DHT22;22957;50.824;4.360;2023-04-15T14:41:33;17.50;76.40
2391;DHT22;22957;50.824;4.360;2023-04-15T14:43:58;17.70;73.10
2391;DHT22;22957;50.824;4.360;2023-04-15T14:46:25;19.20;72.90
2391;DHT22;22957;50.824;4.360;2023-04-15T14:48:50;16.80;75.40
2391;DHT22;22957;50.824;4.360;2023-04-15T14:51:16;18.00;76.90
2391;DHT22;22957;50.824;4.360;2023-04-15T14:53:42;17.60;74.70
2391;DHT22;22957;50.824;4.360;2023-04-15T14:56:08;18.50;71.30
2391;DHT22;22957;50.824;4.360;2023-04-15T14:58:34;17.10;72.00
2391;DHT22;22957;50.824;4.360;2023-04-15T15:01:00;18.50;73.70
2391;DHT22;22957;50.824;4.360;2023-04-15T15:03:27;19.10;73.00
2391;DHT22;22957;50.824;4.360;2023-04-15T15:05:53;19.40;71.30
2391;DHT22;22957;50.824;4.360;2023-04-15T15:08:19;18.60;73.70
2391;DHT22;22957;50.824;4.360;2023-04-15T15:10:44;18.90;74.50
2391;DHT22;22957;50.824;4.360;2023-04-15T15:13:10;17.50;76.70
2391;DHT22;22957;50.824;4.360;2023-04-15T15:15:37;17.20;79.80
2391;DHT22;22957;50.824;4.360;2023-04-15T15:18:02;16.70;81.40
2391;DHT22;22957;50.824;4.360;2023-04-15T15:20:28;18.20;80.60
2391;DHT22;22957;50.824;4.360;2023-04-15T15:22:54;19.30;77.40
2391;DHT22;22957;50.824;4.360;2023-04-15T15:25:20;19.60;76.80
2391;DHT22;22957;50.824;4.360;2023-04-15T15:27:47;19.40;80.30
2391;DHT22;22957;50.824;4.360;2023-04-15T15:30:13;19.40;82.60
2391;DHT22;22957;50.824;4.360;2023-04-15T15:32:39;19.80;82.70
2391;DHT22;22957;50.824;4.360;2023-04-15T15:35:05;19.20;85.80
2391;DHT22;22957;50.824;4.360;2023-04-15T15:37:31;19.10;87.20
2391;DHT22;22957;50.824;4.360;2023-04-15T15:39:57;19.40;88.70
2391;DHT22;22957;50.824;4.360;2023-04-15T15:42:22;18.50;90.00
2391;DHT22;22957;50.824;4.360;2023-04-15T15:44:48;18.40;90.40
2391;DHT22;22957;50.824;4.360;2023-04-15T15:47:15;19.00;91.00
2391;DHT22;22957;50.824;4.360;2023-04-15T15:49:41;18.70;91.20
2391;DHT22;22957;50.824;4.360;2023-04-15T15:52:06;19.60;91.00